createdAt,value
2022-12-17T00:02:31.480Z,100050.44
2022-12-17T00:05:16.691Z,100047.56
2022-12-17T00:08:03.292Z,100037.69
2022-12-17T00:10:48.829Z,100024.47
2022-12-17T00:13:41.559Z,100031.31
2022-12-17T00:16:26.993Z,100032.66
2022-12-17T00:19:12.692Z,100034.91
2022-12-17T00:21:58.208Z,100044.28
2022-12-17T00:24:43.416Z,100007.28
2022-12-17T00:27:29.015Z,100036.69
2022-12-17T00:30:14.220Z,100034.19
2022-12-17T00:32:59.904Z,100028.91
2022-12-17T00:35:45.585Z,100039.28
2022-12-17T00:38:37.269Z,100024.22
2022-12-17T00:41:23.386Z,100017.94
2022-12-17T00:44:08.735Z,100027.22
2022-12-17T00:46:54.000Z,100043.63
2022-12-17T00:49:39.625Z,100035.31
2022-12-17T00:52:38.969Z,100043.16
2022-12-17T00:55:24.610Z,100029.06
2022-12-17T00:58:14.294Z,100029.06
2022-12-17T01:01:00.324Z,100022.19
2022-12-17T01:03:46.356Z,100020.13
2022-12-17T01:06:31.516Z,100033.72
2022-12-17T01:09:17.141Z,100042.06
2022-12-17T01:12:02.720Z,100045.06
2022-12-17T01:14:47.922Z,100033.53
2022-12-17T01:17:32.981Z,100024.63
2022-12-17T01:20:18.518Z,100017.66
2022-12-17T01:23:04.627Z,100020.47
2022-12-17T01:25:50.247Z,100006.94
2022-12-17T01:28:44.152Z,100030.66
2022-12-17T01:31:34.673Z,100036.25
2022-12-17T01:34:20.767Z,100034.38
2022-12-17T01:37:06.816Z,100033.53
2022-12-17T01:39:52.166Z,100019.63
2022-12-17T01:42:37.620Z,100028.53
2022-12-17T01:45:23.676Z,100035.31
2022-12-17T01:48:11.994Z,100040.06
2022-12-17T01:51:04.672Z,100026.16
2022-12-17T01:53:54.725Z,100023.06
2022-12-17T01:56:42.715Z,100033.22
2022-12-17T01:59:28.857Z,100043.28
2022-12-17T02:02:14.426Z,100033.41
2022-12-17T02:05:00.355Z,100031.81
2022-12-17T02:07:54.740Z,100050.50
2022-12-17T02:11:04.814Z,100043.63
2022-12-17T02:13:54.194Z,100020.63
2022-12-17T02:17:12.592Z,100051.06
2022-12-17T02:20:03.707Z,100056.47
2022-12-17T02:23:13.940Z,100052.84
2022-12-17T02:26:00.744Z,100049.72
2022-12-17T02:28:46.750Z,100055.81
2022-12-17T02:31:33.765Z,100047.53
2022-12-17T02:34:19.321Z,100048.63
2022-12-17T02:37:06.287Z,100056.66
2022-12-17T02:39:51.791Z,100050.53
2022-12-17T02:42:42.728Z,100056.59
2022-12-17T02:45:28.964Z,100065.22
2022-12-17T02:48:15.390Z,100069.38
2022-12-17T02:51:01.447Z,100081.53
2022-12-17T02:53:46.992Z,100079.16
2022-12-17T02:56:32.276Z,100061.41
2022-12-17T02:59:17.640Z,100082.50
2022-12-17T03:02:03.169Z,100081.44
2022-12-17T03:04:48.517Z,100091.28
2022-12-17T03:07:34.031Z,100094.69
2022-12-17T03:10:19.196Z,100092.00
2022-12-17T03:13:04.918Z,100092.81
2022-12-17T03:15:52.613Z,100094.03
2022-12-17T03:18:51.530Z,100101.84
2022-12-17T03:21:37.507Z,100101.38
2022-12-17T03:24:23.275Z,100098.06
2022-12-17T03:27:08.633Z,100089.34
2022-12-17T03:29:54.085Z,100087.94
2022-12-17T03:32:39.553Z,100101.16
2022-12-17T03:35:24.964Z,100108.41
2022-12-17T03:38:10.419Z,100093.06
2022-12-17T03:40:56.014Z,100093.44
2022-12-17T03:43:41.538Z,100105.78
2022-12-17T03:46:27.161Z,100103.88
2022-12-17T03:49:12.631Z,100095.34
2022-12-17T03:51:58.226Z,100094.81
2022-12-17T03:54:43.687Z,100093.28
2022-12-17T03:57:29.202Z,100097.75
2022-12-17T04:00:14.880Z,100085.50
2022-12-17T04:03:00.352Z,100108.44
2022-12-17T04:05:45.956Z,100103.75
2022-12-17T04:08:31.517Z,100109.34
2022-12-17T04:11:16.970Z,100118.47
2022-12-17T04:14:02.466Z,100119.31
2022-12-17T04:16:47.809Z,100113.38
2022-12-17T04:19:33.477Z,100114.47
2022-12-17T04:22:18.853Z,100129.06
2022-12-17T04:25:04.383Z,100134.91
2022-12-17T04:27:50.064Z,100121.22
2022-12-17T04:30:35.631Z,100130.34
2022-12-17T04:33:21.022Z,100113.72
2022-12-17T04:36:06.571Z,100145.91
2022-12-17T04:38:52.010Z,100152.84
2022-12-17T04:41:37.804Z,100143.00
2022-12-17T04:44:23.180Z,100148.53
2022-12-17T04:47:08.808Z,100150.19
2022-12-17T04:49:54.233Z,100150.97
2022-12-17T04:52:39.919Z,100165.81
2022-12-17T04:55:25.417Z,100161.25
2022-12-17T04:58:17.783Z,100160.66
2022-12-17T05:01:02.935Z,100170.66
2022-12-17T05:03:48.574Z,100177.91
2022-12-17T05:06:34.093Z,100182.38
2022-12-17T05:09:19.683Z,100181.03
2022-12-17T05:12:05.089Z,100180.78
2022-12-17T05:14:50.550Z,100182.50
2022-12-17T05:17:36.006Z,100192.38
2022-12-17T05:20:22.114Z,100185.09
2022-12-17T05:23:07.525Z,100190.47
2022-12-17T05:25:53.219Z,100188.22
2022-12-17T05:28:38.818Z,100174.25
2022-12-17T05:31:24.484Z,100177.97
2022-12-17T05:34:10.022Z,100181.47
2022-12-17T05:36:55.948Z,100191.06
2022-12-17T05:39:41.473Z,100195.81
2022-12-17T05:42:27.124Z,100208.97
2022-12-17T05:45:12.495Z,100213.72
2022-12-17T05:47:58.027Z,100207.63
2022-12-17T05:50:43.501Z,100214.88
2022-12-17T05:53:29.055Z,100214.34
2022-12-17T05:56:14.501Z,100205.41
2022-12-17T05:59:00.057Z,100224.88
2022-12-17T06:01:45.571Z,100197.63
2022-12-17T06:04:31.182Z,100230.41
2022-12-17T06:07:16.559Z,100230.34
2022-12-17T06:10:02.033Z,100230.88
2022-12-17T06:12:47.556Z,100235.63
2022-12-17T06:15:33.019Z,100222.31
2022-12-17T06:18:18.474Z,100254.13
2022-12-17T06:21:05.171Z,100252.22
2022-12-17T06:23:50.558Z,100247.19
2022-12-17T06:26:35.876Z,100243.41
2022-12-17T06:29:21.393Z,100243.47
2022-12-17T06:32:07.061Z,100255.81
2022-12-17T06:34:52.562Z,100242.44
2022-12-17T06:37:38.092Z,100253.66
2022-12-17T06:40:24.172Z,100256.69
2022-12-17T06:43:14.006Z,100264.84
2022-12-17T06:45:59.516Z,100262.72
2022-12-17T06:48:45.102Z,100262.72
2022-12-17T06:51:30.296Z,100265.81
2022-12-17T06:54:15.980Z,100274.50
2022-12-17T06:57:01.577Z,100276.16
2022-12-17T06:59:47.162Z,100278.44
2022-12-17T07:02:32.794Z,100280.41
2022-12-17T07:05:18.108Z,100286.28
2022-12-17T07:08:03.680Z,100278.19
2022-12-17T07:10:49.271Z,100280.91
2022-12-17T07:13:35.087Z,100283.44
2022-12-17T07:16:21.116Z,100287.41
2022-12-17T07:19:06.736Z,100290.75
2022-12-17T07:21:52.388Z,100285.19
2022-12-17T07:24:38.004Z,100300.34
2022-12-17T07:27:23.611Z,100279.53
2022-12-17T07:30:09.125Z,100304.94
2022-12-17T07:32:54.775Z,100297.41
2022-12-17T07:35:40.118Z,100302.22
2022-12-17T07:38:25.645Z,100306.69
2022-12-17T07:41:11.033Z,100319.53
2022-12-17T07:43:56.662Z,100312.78
2022-12-17T07:46:42.039Z,100322.28
2022-12-17T07:49:27.620Z,100320.59
2022-12-17T07:52:13.274Z,100316.22
2022-12-17T07:54:58.790Z,100319.84
2022-12-17T07:57:44.905Z,100329.63
2022-12-17T08:00:30.959Z,100336.06
2022-12-17T08:03:19.973Z,100348.06
2022-12-17T08:06:05.598Z,100337.78
2022-12-17T08:08:51.082Z,100350.59
2022-12-17T08:11:36.564Z,100353.66
2022-12-17T08:14:22.261Z,100348.66
2022-12-17T08:17:07.433Z,100359.50
2022-12-17T08:19:52.936Z,100353.09
2022-12-17T08:22:38.322Z,100357.56
2022-12-17T08:25:24.111Z,100363.13
2022-12-17T08:28:33.899Z,100357.28
2022-12-17T08:31:20.682Z,100367.38
2022-12-17T08:34:08.085Z,100379.31
2022-12-17T08:36:54.145Z,100395.53
2022-12-17T08:39:39.675Z,100400.53
2022-12-17T08:42:25.079Z,100394.31
2022-12-17T08:45:10.576Z,100395.19
2022-12-17T08:48:00.591Z,100397.19
2022-12-17T08:50:49.513Z,100401.91
2022-12-17T08:53:35.380Z,100409.59
2022-12-17T08:56:20.973Z,100412.41
2022-12-17T08:59:06.392Z,100405.03
2022-12-17T09:01:51.895Z,100418.13
2022-12-17T09:04:37.448Z,100429.66
2022-12-17T09:07:22.858Z,100430.97
2022-12-17T09:10:08.439Z,100428.94
2022-12-17T09:12:53.896Z,100431.69
2022-12-17T09:15:39.263Z,100426.31
2022-12-17T09:18:24.906Z,100423.72
2022-12-17T09:21:12.271Z,100438.72
2022-12-17T09:23:57.749Z,100432.72
2022-12-17T09:26:43.377Z,100441.13
2022-12-17T09:29:28.711Z,100432.75
2022-12-17T09:32:14.348Z,100451.72
2022-12-17T09:34:59.879Z,100452.84
2022-12-17T09:37:45.424Z,100465.66
2022-12-17T09:40:41.347Z,100471.81
2022-12-17T09:43:51.352Z,100461.22
2022-12-17T09:46:36.429Z,100470.53
2022-12-17T09:49:32.076Z,100457.53
2022-12-17T09:52:17.604Z,100458.47
2022-12-17T09:55:07.690Z,100468.84
2022-12-17T09:57:55.513Z,100466.91
2022-12-17T10:00:42.616Z,100476.09
2022-12-17T10:03:38.030Z,100457.31
2022-12-17T10:06:31.289Z,100490.22
2022-12-17T10:09:22.345Z,100497.06
2022-12-17T10:12:07.802Z,100499.81
2022-12-17T10:14:53.114Z,100508.31
2022-12-17T10:17:42.300Z,100505.81
2022-12-17T10:20:33.341Z,100516.13
2022-12-17T10:23:18.780Z,100523.22
2022-12-17T10:26:13.466Z,100518.22
2022-12-17T10:28:59.765Z,100521.94
2022-12-17T10:31:48.781Z,100508.72
2022-12-17T10:34:37.235Z,100515.56
2022-12-17T10:37:24.119Z,100511.53
2022-12-17T10:40:21.414Z,100524.38
2022-12-17T10:43:06.801Z,100516.38
2022-12-17T10:45:54.523Z,100518.53
2022-12-17T10:48:47.608Z,100517.13
2022-12-17T10:51:40.457Z,100506.44
2022-12-17T10:54:50.168Z,100515.16
2022-12-17T10:57:56.637Z,100520.31
2022-12-17T11:00:50.442Z,100511.94
2022-12-17T11:03:54.588Z,100517.94
2022-12-17T11:06:46.103Z,100521.00
2022-12-17T11:10:03.689Z,100527.16
2022-12-17T11:13:13.790Z,100517.03
2022-12-17T11:16:04.013Z,100512.78
2022-12-17T11:18:58.731Z,100512.22
2022-12-17T11:21:47.683Z,100518.44
2022-12-17T11:24:42.184Z,100521.22
2022-12-17T11:27:34.934Z,100510.47
2022-12-17T11:30:20.280Z,100521.66
2022-12-17T11:33:31.903Z,100520.09
2022-12-17T11:36:31.228Z,100510.16
2022-12-17T11:39:56.384Z,100518.78
2022-12-17T11:43:03.647Z,100510.94
2022-12-17T11:46:16.736Z,100516.31
2022-12-17T11:49:22.567Z,100516.47
2022-12-17T11:52:32.733Z,100509.44
2022-12-17T11:55:27.856Z,100502.53
2022-12-17T11:58:35.769Z,100523.56
2022-12-17T12:01:27.298Z,100523.00
2022-12-17T12:04:39.162Z,100518.38
2022-12-17T12:07:47.415Z,100513.34
2022-12-17T12:10:42.017Z,100517.28
2022-12-17T12:13:36.163Z,100512.50
2022-12-17T12:16:33.453Z,100512.47
2022-12-17T12:19:18.331Z,100509.78
2022-12-17T12:22:30.323Z,100512.84
2022-12-17T12:25:37.239Z,100498.94
2022-12-17T12:28:43.617Z,100499.00
2022-12-17T12:31:31.750Z,100507.59
2022-12-17T12:34:24.808Z,100486.91
2022-12-17T12:37:11.293Z,100486.72
2022-12-17T12:40:24.130Z,100486.75
2022-12-17T12:43:23.236Z,100487.75
2022-12-17T12:46:16.887Z,100501.59
2022-12-17T12:49:15.061Z,100478.69
2022-12-17T12:52:00.636Z,100491.22
2022-12-17T12:55:11.337Z,100486.09
2022-12-17T12:57:56.368Z,100495.00
2022-12-17T13:00:58.385Z,100486.53
2022-12-17T13:03:53.056Z,100481.31
2022-12-17T13:06:38.273Z,100491.16
2022-12-17T13:09:18.398Z,100479.09
2022-12-17T13:11:46.193Z,100473.66
2022-12-17T13:14:23.909Z,100470.13
2022-12-17T13:17:21.695Z,100461.88
2022-12-17T13:19:57.412Z,100481.91
2022-12-17T13:22:24.897Z,100486.06
2022-12-17T13:24:54.463Z,100480.75
2022-12-17T13:27:36.468Z,100479.97
2022-12-17T13:30:18.292Z,100485.66
2022-12-17T13:32:51.098Z,100502.69
2022-12-17T13:35:36.455Z,100493.06
2022-12-17T13:38:24.671Z,100495.47
2022-12-17T13:41:13.875Z,100488.13
2022-12-17T13:43:40.715Z,100505.44
2022-12-17T13:46:07.517Z,100497.50
2022-12-17T13:48:34.528Z,100502.81
2022-12-17T13:51:05.131Z,100489.88
2022-12-17T13:53:35.570Z,100496.50
2022-12-17T13:56:02.530Z,100497.03
2022-12-17T13:58:33.192Z,100496.50
2022-12-17T14:01:09.054Z,100495.06
2022-12-17T14:04:04.219Z,100486.25
2022-12-17T14:06:34.273Z,100496.19
2022-12-17T14:09:02.719Z,100496.69
2022-12-17T14:11:50.428Z,100494.22
2022-12-17T14:14:28.981Z,100495.22
2022-12-17T14:16:56.021Z,100487.59
2022-12-17T14:19:24.477Z,100484.13
2022-12-17T14:21:52.104Z,100500.22
2022-12-17T14:24:23.404Z,100491.56
2022-12-17T14:26:52.759Z,100475.94
2022-12-17T14:29:28.208Z,100490.59
2022-12-17T14:32:03.976Z,100500.38
2022-12-17T14:34:42.044Z,100502.66
2022-12-17T14:37:19.972Z,100500.13
2022-12-17T14:39:48.478Z,100489.63
2022-12-17T14:42:32.634Z,100503.75
2022-12-17T14:45:21.390Z,100503.06
2022-12-17T14:48:07.250Z,100500.38
2022-12-17T14:50:36.710Z,100510.63
2022-12-17T14:53:23.783Z,100515.25
2022-12-17T14:55:57.414Z,100513.78
2022-12-17T14:58:26.158Z,100513.31
2022-12-17T15:01:00.402Z,100509.97
2022-12-17T15:03:30.036Z,100511.66
2022-12-17T15:06:08.561Z,100505.81
2022-12-17T15:08:40.007Z,100504.69
2022-12-17T15:11:07.800Z,100514.69
2022-12-17T15:13:34.608Z,100528.59
2022-12-17T15:16:01.348Z,100509.53
2022-12-17T15:18:28.175Z,100516.44
2022-12-17T15:20:55.066Z,100511.34
2022-12-17T15:23:23.295Z,100502.66
2022-12-17T15:25:52.337Z,100494.97
2022-12-17T15:28:20.754Z,100506.25
2022-12-17T15:30:48.386Z,100510.22
2022-12-17T15:33:15.832Z,100520.59
2022-12-17T15:35:43.545Z,100527.91
2022-12-17T15:38:11.859Z,100523.41
2022-12-17T15:40:39.485Z,100524.38
2022-12-17T15:43:12.376Z,100527.00
2022-12-17T15:45:50.344Z,100526.09
2022-12-17T15:48:19.784Z,100527.69
2022-12-17T15:50:47.240Z,100539.38
2022-12-17T15:53:14.070Z,100547.44
2022-12-17T15:55:41.170Z,100536.75
2022-12-17T15:58:10.675Z,100535.69
2022-12-17T16:00:37.775Z,100531.78
2022-12-17T16:03:04.626Z,100533.19
2022-12-17T16:05:31.598Z,100544.88
2022-12-17T16:08:02.304Z,100542.56
2022-12-17T16:10:29.952Z,100555.72
2022-12-17T16:12:56.832Z,100555.94
2022-12-17T16:15:23.540Z,100557.72
2022-12-17T16:17:50.332Z,100540.63
2022-12-17T16:20:17.479Z,100552.72
2022-12-17T16:22:44.638Z,100541.34
2022-12-17T16:25:11.478Z,100551.97
2022-12-17T16:27:38.542Z,100561.97
2022-12-17T16:30:05.962Z,100552.78
2022-12-17T16:32:36.685Z,100567.41
2022-12-17T16:35:04.949Z,100570.63
2022-12-17T16:37:32.184Z,100559.38
2022-12-17T16:40:00.461Z,100571.66
2022-12-17T16:42:27.898Z,100569.88
2022-12-17T16:44:54.750Z,100570.06
2022-12-17T16:47:21.443Z,100566.63
2022-12-17T16:49:50.963Z,100566.94
2022-12-17T16:52:18.090Z,100577.44
2022-12-17T16:54:44.791Z,100586.19
2022-12-17T16:57:11.552Z,100586.50
2022-12-17T16:59:38.346Z,100588.59
2022-12-17T17:02:05.628Z,100590.25
2022-12-17T17:04:32.538Z,100581.44
2022-12-17T17:06:59.325Z,100581.56
2022-12-17T17:09:26.400Z,100570.78
2022-12-17T17:11:57.150Z,100581.84
2022-12-17T17:14:24.322Z,100586.19
2022-12-17T17:16:51.568Z,100572.88
2022-12-17T17:19:21.446Z,100593.59
2022-12-17T17:21:52.009Z,100589.84
2022-12-17T17:24:22.117Z,100580.31
2022-12-17T17:26:52.603Z,100580.66
2022-12-17T17:29:19.343Z,100597.63
2022-12-17T17:32:10.311Z,100596.28
2022-12-17T17:34:32.988Z,100587.94
2022-12-17T17:37:00.023Z,100586.78
2022-12-17T17:39:27.427Z,100588.47
2022-12-17T17:41:54.365Z,100600.25
2022-12-17T17:44:21.135Z,100590.31
2022-12-17T17:46:47.912Z,100604.34
2022-12-17T17:49:14.913Z,100603.78
2022-12-17T17:54:30.484Z,100603.78
2022-12-17T17:56:57.197Z,100605.00
2022-12-17T17:59:29.563Z,100610.25
2022-12-17T18:01:58.272Z,100613.97
2022-12-17T18:04:25.076Z,100624.38
2022-12-17T18:07:23.590Z,100620.78
2022-12-17T18:09:39.500Z,100627.00
2022-12-17T18:12:26.413Z,100610.88
2022-12-17T18:17:40.204Z,100648.47
2022-12-17T18:20:07.626Z,100621.41
2022-12-17T18:22:34.527Z,100650.72
2022-12-17T18:25:01.267Z,100654.13
2022-12-17T18:27:28.034Z,100665.34
2022-12-17T18:29:55.833Z,100665.34
2022-12-17T18:32:22.570Z,100668.47
2022-12-17T18:34:49.332Z,100673.47
2022-12-17T18:37:16.226Z,100682.19
2022-12-17T18:39:43.015Z,100686.16
2022-12-17T18:42:28.296Z,100674.44
2022-12-17T18:44:55.016Z,100699.16
2022-12-17T18:47:23.073Z,100705.59
2022-12-17T18:49:49.929Z,100706.16
2022-12-17T18:52:17.573Z,100708.13
2022-12-17T18:54:45.125Z,100705.31
2022-12-17T18:57:12.352Z,100715.16
2022-12-17T18:59:40.984Z,100720.53
2022-12-17T19:02:15.290Z,100707.13
2022-12-17T19:04:42.208Z,100726.50
2022-12-17T19:07:09.058Z,100729.53
2022-12-17T19:09:36.756Z,100715.63
2022-12-17T19:12:06.068Z,100722.31
2022-12-17T19:14:33.488Z,100722.38
2022-12-17T19:17:00.534Z,100726.09
2022-12-17T19:19:27.455Z,100735.66
2022-12-17T19:21:55.383Z,100729.19
2022-12-17T19:24:23.573Z,100716.38
2022-12-17T19:26:50.980Z,100731.47
2022-12-17T19:29:19.087Z,100732.06
2022-12-17T19:31:46.047Z,100741.06
2022-12-17T19:34:15.204Z,100746.66
2022-12-17T19:36:43.124Z,100749.28
2022-12-17T19:39:13.187Z,100751.34
2022-12-17T19:41:40.104Z,100755.34
2022-12-17T19:44:11.572Z,100763.75
2022-12-17T19:46:38.717Z,100757.91
2022-12-17T19:49:05.925Z,100756.28
2022-12-17T19:51:33.500Z,100759.97
2022-12-17T19:54:06.408Z,100767.81
2022-12-17T19:56:35.302Z,100770.06
2022-12-17T19:59:07.946Z,100767.84
2022-12-17T20:01:38.256Z,100777.41
2022-12-17T20:04:06.211Z,100779.63
2022-12-17T20:06:35.043Z,100783.25
2022-12-17T20:09:04.475Z,100776.28
2022-12-17T20:11:34.581Z,100775.47
2022-12-17T20:14:21.793Z,100778.03
2022-12-17T20:16:51.512Z,100777.19
2022-12-17T20:19:21.154Z,100781.19
2022-12-17T20:21:48.635Z,100776.97
2022-12-17T20:24:16.808Z,100785.91
2022-12-17T20:26:44.979Z,100773.63
2022-12-17T20:29:12.151Z,100791.81
2022-12-17T20:31:43.288Z,100780.06
2022-12-17T20:34:14.852Z,100770.28
2022-12-17T20:36:42.135Z,100761.41
2022-12-17T20:39:09.526Z,100770.59
2022-12-17T20:41:36.505Z,100773.97
2022-12-17T20:44:05.914Z,100759.69
2022-12-17T20:46:33.706Z,100751.34
2022-12-17T20:49:01.085Z,100773.19
2022-12-17T20:51:29.324Z,100763.66
2022-12-17T20:53:58.606Z,100764.81
2022-12-17T20:56:28.244Z,100755.88
2022-12-17T20:59:00.599Z,100762.59
2022-12-17T21:01:29.137Z,100767.91
2022-12-17T21:03:57.760Z,100773.22
2022-12-17T21:06:39.160Z,100762.59
2022-12-17T21:09:06.563Z,100760.91
2022-12-17T21:11:35.791Z,100758.09
2022-12-17T21:14:11.463Z,100734.63
2022-12-17T21:16:39.639Z,100755.56
2022-12-17T21:19:08.411Z,100757.53
2022-12-17T21:21:37.924Z,100755.88
2022-12-17T21:24:06.189Z,100758.09
2022-12-17T21:26:38.401Z,100755.88
2022-12-17T21:29:07.272Z,100756.97
2022-12-17T21:31:38.348Z,100763.13
2022-12-17T21:34:07.029Z,100753.59
2022-12-17T21:36:35.059Z,100762.00
2022-12-17T21:39:09.401Z,100751.38
2022-12-17T21:41:38.903Z,100751.94
2022-12-17T21:44:09.148Z,100758.66
2022-12-17T21:46:35.930Z,100758.41
2022-12-17T21:49:04.979Z,100741.00
2022-12-17T21:51:32.625Z,100747.22
2022-12-17T21:54:02.870Z,100753.63
2022-12-17T21:56:36.100Z,100755.31
2022-12-17T21:59:02.906Z,100753.63
2022-12-17T22:01:34.212Z,100754.75
2022-12-17T22:04:03.583Z,100744.69
2022-12-17T22:06:34.299Z,100746.38
2022-12-17T22:09:20.101Z,100762.59
2022-12-17T22:12:16.049Z,100751.97
2022-12-17T22:14:43.021Z,100739.97
2022-12-17T22:17:09.731Z,100735.50
2022-12-17T22:19:36.587Z,100744.44
2022-12-17T22:22:03.563Z,100757.56
2022-12-17T22:24:30.291Z,100741.38
2022-12-17T22:27:03.204Z,100754.75
2022-12-17T22:29:48.416Z,100751.97
2022-12-17T22:32:33.977Z,100748.06
2022-12-17T22:36:34.832Z,100758.16
2022-12-17T22:41:07.094Z,100760.38
2022-12-17T22:44:28.691Z,100758.72
2022-12-17T22:44:38.823Z,100767.66
2022-12-17T22:46:17.178Z,100758.69
2022-12-17T22:48:44.089Z,100776.31
2022-12-17T22:51:12.276Z,100736.94
2022-12-17T22:53:48.027Z,100771.00
2022-12-17T22:56:27.786Z,100755.09
2022-12-17T22:59:02.318Z,100757.91
2022-12-17T23:01:29.428Z,100760.97
2022-12-17T23:03:58.109Z,100761.81
2022-12-17T23:06:25.907Z,100755.94
2022-12-17T23:08:52.896Z,100747.56
2022-12-17T23:11:22.991Z,100754.81
2022-12-17T23:13:50.383Z,100751.47
2022-12-17T23:16:17.945Z,100762.09
2022-12-17T23:18:46.477Z,100761.25
2022-12-17T23:21:17.436Z,100747.00
2022-12-17T23:23:44.283Z,100762.09
2022-12-17T23:26:15.235Z,100750.91
2022-12-17T23:28:43.133Z,100760.97
2022-12-17T23:31:16.690Z,100751.16
2022-12-17T23:33:44.300Z,100749.78
2022-12-17T23:36:16.788Z,100742.53
2022-12-17T23:38:44.232Z,100752.59
2022-12-17T23:41:19.373Z,100737.22
2022-12-17T23:43:46.554Z,100742.53
2022-12-17T23:46:13.803Z,100736.94
2022-12-17T23:48:45.578Z,100721.00
2022-12-17T23:51:14.672Z,100714.59
2022-12-17T23:53:42.638Z,100693.91
2022-12-17T23:56:20.109Z,100707.88
2022-12-17T23:58:47.872Z,100707.28
